Time;durP1;ratioP1;P1;durP2;ratioP2;P2;SDS_P1;SDS_P2;PMS_P1;PMS_P2;Temp;Humidity;BMP_temperature;BMP_pressure;BME280_temperature;BME280_humidity;BME280_pressure;Samples;Min_cycle;Max_cycle;Signal;HPM_P1;HPM_P2
2022/07/19 00:01:31;;;;;;;2.10;1.80;;;;;21.10;94708.00;;;;7396364;19;20137;-72
2022/07/19 00:03:59;;;;;;;3.72;1.80;;;;;21.00;94711.00;;;;7397287;19;20133;-72
2022/07/19 00:06:26;;;;;;;4.63;2.10;;;;;20.90;94707.00;;;;7395591;19;20558;-72
2022/07/19 00:09:02;;;;;;;5.47;1.73;;;;;20.70;94712.00;;;;7397275;19;20156;-71
2022/07/19 00:11:30;;;;;;;4.05;1.80;;;;;20.90;94707.00;;;;7395716;19;20191;-71
2022/07/19 00:13:58;;;;;;;5.93;1.67;;;;;20.80;94710.00;;;;7398451;19;20148;-72
2022/07/19 00:16:32;;;;;;;7.18;1.88;;;;;21.20;94709.00;;;;7395288;19;20141;-71
2022/07/19 00:19:00;;;;;;;4.55;2.22;;;;;21.40;94711.00;;;;7395515;19;20129;-70
2022/07/19 00:21:27;;;;;;;4.82;2.38;;;;;21.20;94704.00;;;;7397132;19;20137;-73
2022/07/19 00:24:01;;;;;;;3.05;1.80;;;;;21.20;94713.00;;;;7396273;19;20147;-74
2022/07/19 00:26:29;;;;;;;4.47;1.88;;;;;21.30;94708.00;;;;7393794;19;20619;-73
2022/07/19 00:28:57;;;;;;;4.07;2.33;;;;;21.70;94704.00;;;;7395506;19;20156;-74
2022/07/19 00:31:32;;;;;;;4.63;2.00;;;;;21.70;94703.00;;;;7395828;19;20624;-73
2022/07/19 00:34:00;;;;;;;4.20;1.80;;;;;21.30;94696.00;;;;7396551;19;20154;-73
2022/07/19 00:36:28;;;;;;;5.10;1.80;;;;;21.40;94705.00;;;;7393959;19;20149;-74
2022/07/19 00:39:02;;;;;;;7.65;1.90;;;;;21.30;94699.00;;;;7396048;19;20141;-72
2022/07/19 00:41:30;;;;;;;7.40;2.55;;;;;21.30;94702.00;;;;7397854;19;20128;-73
2022/07/19 00:44:01;;;;;;;3.13;2.35;;;;;21.10;94704.00;;;;7394353;19;20219;-74
2022/07/19 00:46:35;;;;;;;5.28;2.10;;;;;21.40;94701.00;;;;7396278;19;20128;-73
2022/07/19 00:49:16;;;;;;;3.65;1.98;;;;;21.30;94696.00;;;;7393655;19;20284;-72
2022/07/19 00:51:52;;;;;;;2.67;1.95;;;;;21.70;94697.00;;;;7397588;19;20144;-72
2022/07/19 00:54:21;;;;;;;4.82;2.00;;;;;21.60;94699.00;;;;7397287;19;20176;-73
2022/07/19 00:56:50;;;;;;;3.00;1.90;;;;;21.70;94703.00;;;;7392043;19;20505;-73
2022/07/19 00:59:26;;;;;;;3.78;1.90;;;;;21.60;94694.00;;;;7395114;19;20149;-73
2022/07/19 01:01:55;;;;;;;3.97;2.00;;;;;21.60;94697.00;;;;7395130;19;20158;-73
2022/07/19 01:04:23;;;;;;;6.85;2.58;;;;;21.80;94699.00;;;;7391122;19;20148;-72
2022/07/19 01:06:57;;;;;;;4.35;1.90;;;;;21.40;94698.00;;;;7393698;19;20203;-71
2022/07/19 01:09:24;;;;;;;3.78;1.98;;;;;21.40;94688.00;;;;7395193;19;20148;-73
2022/07/19 01:11:52;;;;;;;6.07;2.08;;;;;21.70;94693.00;;;;7394150;19;20493;-73
2022/07/19 01:14:26;;;;;;;5.18;2.10;;;;;21.60;94694.00;;;;7392394;19;20149;-72
2022/07/19 01:16:53;;;;;;;3.28;2.05;;;;;21.60;94698.00;;;;7394301;19;20124;-74
2022/07/19 01:19:21;;;;;;;5.28;1.98;;;;;21.80;94699.00;;;;7394597;19;20170;-74
2022/07/19 01:21:56;;;;;;;2.55;2.17;;;;;21.70;94695.00;;;;7395539;19;20610;-73
2022/07/19 01:24:24;;;;;;;5.85;2.15;;;;;21.90;94693.00;;;;7390954;19;20144;-73
2022/07/19 01:26:51;;;;;;;3.67;1.85;;;;;21.90;94696.00;;;;7393799;19;20603;-76
2022/07/19 01:29:26;;;;;;;5.10;2.10;;;;;21.80;94696.00;;;;7393993;19;20144;-73
2022/07/19 01:31:53;;;;;;;2.25;2.05;;;;;21.90;94697.00;;;;7394654;19;20132;-73
2022/07/19 01:34:21;;;;;;;3.90;2.25;;;;;21.50;94699.00;;;;7391949;19;20851;-72
2022/07/19 01:36:55;;;;;;;6.20;2.45;;;;;21.30;94701.00;;;;7393002;19;20212;-72
2022/07/19 01:39:22;;;;;;;7.15;2.13;;;;;21.50;94700.00;;;;7394093;19;20657;-74
2022/07/19 01:41:50;;;;;;;3.63;2.20;;;;;21.10;94703.00;;;;7395465;19;20144;-72
2022/07/19 01:44:24;;;;;;;2.58;1.75;;;;;21.00;94701.00;;;;7390484;19;20236;-72
2022/07/19 01:46:51;;;;;;;2.55;1.88;;;;;20.70;94699.00;;;;7394669;19;20149;-72
2022/07/19 01:49:19;;;;;;;4.43;2.20;;;;;20.70;94688.00;;;;7392474;19;20606;-72
2022/07/19 01:51:59;;;;;;;3.60;2.10;;;;;20.60;94697.00;;;;7394447;19;20173;-73
2022/07/19 01:54:27;;;;;;;4.93;2.03;;;;;20.50;94703.00;;;;7390691;19;20127;-71
2022/07/19 01:57:01;;;;;;;2.80;2.00;;;;;20.60;94694.00;;;;7392203;19;20148;-73
2022/07/19 01:59:28;;;;;;;3.33;2.10;;;;;20.70;94691.00;;;;7393219;19;20145;-72
2022/07/19 02:01:56;;;;;;;2.28;1.90;;;;;20.80;94684.00;;;;7393851;19;20168;-74
2022/07/19 02:04:30;;;;;;;4.07;2.20;;;;;20.70;94689.00;;;;7391225;19;20140;-73
2022/07/19 02:06:58;;;;;;;11.45;2.47;;;;;20.70;94685.00;;;;7392226;19;20579;-72
2022/07/19 02:09:26;;;;;;;2.22;2.03;;;;;20.40;94682.00;;;;7393282;19;20170;-72
2022/07/19 02:12:03;;;;;;;3.10;1.80;;;;;20.20;94681.00;;;;7393255;19;20646;-72
2022/07/19 02:14:31;;;;;;;2.97;2.20;;;;;20.20;94675.00;;;;7391160;19;20625;-72
2022/07/19 02:16:58;;;;;;;4.78;2.40;;;;;20.30;94673.00;;;;7392209;19;20268;-73
2022/07/19 02:19:34;;;;;;;2.35;2.15;;;;;20.70;94670.00;;;;7393916;19;20152;-73
2022/07/19 02:22:01;;;;;;;4.55;2.10;;;;;20.70;94667.00;;;;7393572;19;20150;-72
2022/07/19 02:24:29;;;;;;;2.50;1.85;;;;;20.50;94670.00;;;;7388919;19;20911;-73
2022/07/19 02:27:03;;;;;;;4.55;1.85;;;;;20.40;94669.00;;;;7392867;19;20196;-74
2022/07/19 02:29:30;;;;;;;4.28;2.13;;;;;20.30;94664.00;;;;7392421;19;20137;-72
2022/07/19 02:31:58;;;;;;;6.35;2.15;;;;;20.10;94664.00;;;;7393253;19;20160;-73
2022/07/19 02:34:33;;;;;;;2.53;1.98;;;;;20.00;94663.00;;;;7389980;19;20133;-72
2022/07/19 02:37:01;;;;;;;5.82;2.10;;;;;20.50;94658.00;;;;7391125;19;20216;-72
2022/07/19 02:39:28;;;;;;;2.15;1.95;;;;;20.80;94661.00;;;;7393020;19;20165;-73
2022/07/19 02:42:03;;;;;;;2.88;2.13;;;;;20.60;94661.00;;;;7393929;19;20136;-71
2022/07/19 02:44:30;;;;;;;3.35;2.28;;;;;20.50;94660.00;;;;7389090;19;20611;-72
2022/07/19 02:46:58;;;;;;;3.13;1.92;;;;;20.80;94655.00;;;;7390621;19;20145;-71
2022/07/19 02:49:38;;;;;;;7.40;2.30;;;;;21.50;94654.00;;;;7391941;19;20165;-73
2022/07/19 02:52:06;;;;;;;3.15;2.40;;;;;21.80;94638.00;;;;7393426;19;20140;-73
2022/07/19 02:54:42;;;;;;;3.65;1.80;;;;;22.00;94643.00;;;;7390826;19;20192;-73
2022/07/19 02:57:09;;;;;;;4.50;2.05;;;;;21.80;94631.00;;;;7392923;19;20152;-73
2022/07/19 02:59:37;;;;;;;4.28;2.10;;;;;21.60;94644.00;;;;7392305;19;20602;-73
2022/07/19 03:02:11;;;;;;;3.08;2.20;;;;;21.50;94647.00;;;;7391865;19;20133;-73
2022/07/19 03:04:38;;;;;;;3.80;2.28;;;;;21.30;94638.00;;;;7387565;19;20148;-74
2022/07/19 03:07:06;;;;;;;4.22;2.00;;;;;21.30;94643.00;;;;7394459;19;20152;-72
2022/07/19 03:09:40;;;;;;;3.95;1.90;;;;;21.40;94638.00;;;;7399127;19;20211;-72
2022/07/19 03:12:07;;;;;;;2.30;2.03;;;;;21.50;94645.00;;;;7398373;19;20180;-73
2022/07/19 03:14:35;;;;;;;2.92;2.20;;;;;21.50;94649.00;;;;7399646;19;20602;-72
2022/07/19 03:17:16;;;;;;;4.25;2.40;;;;;21.70;94643.00;;;;7398566;19;20595;-74
2022/07/19 03:19:45;;;;;;;2.78;2.38;;;;;22.00;94645.00;;;;7399094;19;20493;-72
2022/07/19 03:22:21;;;;;;;6.82;2.10;;;;;22.10;94641.00;;;;7401104;19;20137;-73
2022/07/19 03:24:49;;;;;;;3.95;2.22;;;;;22.30;94636.00;;;;7395819;19;20488;-73
2022/07/19 03:27:16;;;;;;;7.90;2.10;;;;;22.30;94637.00;;;;7397457;19;20148;-74
2022/07/19 03:29:50;;;;;;;2.90;1.98;;;;;22.40;94636.00;;;;7399915;19;20152;-73
2022/07/19 03:32:17;;;;;;;3.08;2.38;;;;;22.30;94636.00;;;;7399558;19;20791;-72
2022/07/19 03:34:45;;;;;;;2.88;2.25;;;;;22.10;94636.00;;;;7395307;19;20160;-73
2022/07/19 03:37:20;;;;;;;6.22;2.00;;;;;22.00;94635.00;;;;7398814;19;20128;-75
2022/07/19 03:39:47;;;;;;;2.70;2.10;;;;;22.00;94641.00;;;;7398433;19;20156;-73
2022/07/19 03:42:15;;;;;;;3.88;2.17;;;;;22.00;94640.00;;;;7399142;19;20590;-73
2022/07/19 03:44:49;;;;;;;4.57;2.00;;;;;21.90;94646.00;;;;7395610;19;20592;-73
2022/07/19 03:47:16;;;;;;;6.38;2.13;;;;;21.80;94632.00;;;;7397484;19;20607;-73
2022/07/19 03:49:44;;;;;;;2.92;1.70;;;;;21.70;94637.00;;;;7396603;19;20208;-73
2022/07/19 03:52:24;;;;;;;3.05;2.35;;;;;21.20;94638.00;;;;7399702;19;20606;-74
2022/07/19 03:54:52;;;;;;;4.70;1.85;;;;;20.90;94639.00;;;;7397027;19;20152;-74
2022/07/19 03:57:30;;;;;;;5.28;2.20;;;;;20.90;94639.00;;;;7397249;19;20718;-73
2022/07/19 03:59:57;;;;;;;3.55;2.22;;;;;20.90;94642.00;;;;7398321;19;20152;-75
2022/07/19 04:02:25;;;;;;;6.65;2.10;;;;;20.90;94649.00;;;;7395226;19;20144;-73
2022/07/19 04:04:59;;;;;;;3.28;2.05;;;;;21.00;94645.00;;;;7394078;19;20131;-74
2022/07/19 04:07:27;;;;;;;3.35;2.03;;;;;21.10;94644.00;;;;7397337;19;20549;-74
2022/07/19 04:09:54;;;;;;;2.78;1.98;;;;;21.30;94641.00;;;;7398656;19;20522;-74
2022/07/19 04:12:29;;;;;;;4.75;2.10;;;;;21.50;94636.00;;;;7392669;19;20168;-71
2022/07/19 04:14:56;;;;;;;5.38;2.20;;;;;21.60;94648.00;;;;7395467;19;20226;-72
2022/07/19 04:17:24;;;;;;;3.60;1.90;;;;;22.00;94640.00;;;;7396497;19;20177;-72
2022/07/19 04:19:58;;;;;;;2.10;1.90;;;;;22.30;94644.00;;;;7394431;19;20156;-71
2022/07/19 04:22:30;;;;;;;6.68;2.13;;;;;22.20;94645.00;;;;7393972;19;20121;-71
2022/07/19 04:24:58;;;;;;;3.15;2.17;;;;;22.00;94650.00;;;;7393885;19;20132;-71
2022/07/19 04:27:39;;;;;;;3.97;2.17;;;;;22.10;94650.00;;;;7396726;19;20129;-71
2022/07/19 04:30:07;;;;;;;3.30;1.95;;;;;22.10;94657.00;;;;7395984;19;20144;-72
2022/07/19 04:32:41;;;;;;;5.75;1.90;;;;;22.00;94658.00;;;;7397740;19;20141;-73
2022/07/19 04:35:08;;;;;;;3.58;2.05;;;;;22.10;94656.00;;;;7393525;19;20140;-72
2022/07/19 04:37:36;;;;;;;5.80;2.30;;;;;22.20;94653.00;;;;7394900;19;20620;-71
2022/07/19 04:40:11;;;;;;;2.28;1.88;;;;;22.40;94650.00;;;;7397204;19;20125;-71
2022/07/19 04:42:38;;;;;;;4.88;1.90;;;;;22.20;94656.00;;;;7395263;19;20129;-70
2022/07/19 04:45:06;;;;;;;4.75;1.90;;;;;22.10;94653.00;;;;7392257;19;20603;-71
2022/07/19 04:47:41;;;;;;;2.90;2.00;;;;;22.20;94651.00;;;;7395971;19;20575;-72
2022/07/19 04:50:24;;;;;;;3.67;1.92;;;;;22.10;94653.00;;;;7394478;19;20172;-71
2022/07/19 04:52:58;;;;;;;2.58;1.92;;;;;22.10;94656.00;;;;7395127;19;20611;-71
2022/07/19 04:55:25;;;;;;;2.67;2.17;;;;;22.10;94653.00;;;;7384947;19;20144;-71
2022/07/19 04:57:53;;;;;;;5.18;2.30;;;;;22.20;94649.00;;;;7395759;19;20627;-72
2022/07/19 05:00:27;;;;;;;3.72;1.90;;;;;22.10;94653.00;;;;7393515;19;20618;-71
2022/07/19 05:02:56;;;;;;;7.07;2.00;;;;;22.20;94648.00;;;;7394708;19;20148;-72
2022/07/19 05:05:24;;;;;;;3.25;2.08;;;;;22.40;94647.00;;;;7392888;19;20633;-72
2022/07/19 05:07:58;;;;;;;2.42;1.90;;;;;22.60;94643.00;;;;7394604;19;20152;-70
2022/07/19 05:10:27;;;;;;;2.80;2.10;;;;;22.80;94652.00;;;;7395640;19;20129;-69
2022/07/19 05:12:55;;;;;;;8.02;2.30;;;;;22.90;94639.00;;;;7394480;19;20165;-69
2022/07/19 05:15:31;;;;;;;3.25;1.92;;;;;23.10;94645.00;;;;7396031;19;20161;-71
2022/07/19 05:17:59;;;;;;;3.25;2.00;;;;;23.20;94642.00;;;;7397607;19;20137;-69
2022/07/19 05:20:27;;;;;;;2.53;2.08;;;;;23.30;94638.00;;;;7393691;19;20163;-68
2022/07/19 05:23:03;;;;;;;3.95;1.90;;;;;23.50;94640.00;;;;7395760;19;20129;-70
2022/07/19 05:25:34;;;;;;;2.88;1.73;;;;;23.60;94642.00;;;;7393354;19;20129;-70
2022/07/19 05:28:08;;;;;;;2.67;2.00;;;;;23.70;94639.00;;;;7394695;19;20168;-69
2022/07/19 05:30:36;;;;;;;1.95;1.80;;;;;23.70;94640.00;;;;7394128;19;20673;-69
2022/07/19 05:33:04;;;;;;;2.17;1.98;;;;;23.80;94646.00;;;;7394439;19;20675;-70
2022/07/19 05:35:39;;;;;;;3.75;2.00;;;;;24.00;94642.00;;;;7394785;19;20155;-69
2022/07/19 05:38:23;;;;;;;4.63;2.00;;;;;24.10;94644.00;;;;7392163;19;20241;-71
2022/07/19 05:41:05;;;;;;;4.82;2.00;;;;;24.20;94649.00;;;;7395550;19;20144;-70
2022/07/19 05:43:35;;;;;;;3.22;2.08;;;;;24.40;94649.00;;;;7393073;19;20140;-70
2022/07/19 05:46:12;;;;;;;3.25;2.00;;;;;24.30;94645.00;;;;7392539;19;20124;-71
2022/07/19 05:48:40;;;;;;;2.20;2.00;;;;;24.50;94641.00;;;;7394274;19;20461;-71
2022/07/19 05:51:08;;;;;;;2.30;2.10;;;;;24.70;94651.00;;;;7392073;19;20180;-70
2022/07/19 05:53:43;;;;;;;3.25;2.20;;;;;24.70;94647.00;;;;7391883;19;20162;-70
2022/07/19 05:56:11;;;;;;;4.18;2.30;;;;;24.80;94645.00;;;;7394510;19;20194;-71
2022/07/19 05:58:40;;;;;;;3.22;2.15;;;;;24.90;94647.00;;;;7393181;19;20297;-70
2022/07/19 06:01:22;;;;;;;3.85;2.03;;;;;24.90;94649.00;;;;7393232;19;20177;-70
2022/07/19 06:03:52;;;;;;;2.25;1.92;;;;;25.10;94651.00;;;;7393296;19;20144;-72
2022/07/19 06:06:35;;;;;;;2.28;2.03;;;;;25.30;94642.00;;;;7393841;19;20139;-72
2022/07/19 06:09:05;;;;;;;2.10;1.90;;;;;25.50;94647.00;;;;7395426;19;20520;-71
2022/07/19 06:11:40;;;;;;;3.30;1.90;;;;;25.60;94651.00;;;;7391294;19;20144;-71
2022/07/19 06:14:08;;;;;;;3.80;2.30;;;;;25.80;94650.00;;;;7391592;19;20155;-72
2022/07/19 06:16:38;;;;;;;3.22;2.03;;;;;25.90;94653.00;;;;7394177;19;20133;-70
2022/07/19 06:19:12;;;;;;;2.97;1.90;;;;;25.90;94649.00;;;;7393819;19;20144;-70
2022/07/19 06:21:40;;;;;;;2.95;2.10;;;;;26.00;94645.00;;;;7392530;19;20216;-70
2022/07/19 06:24:08;;;;;;;4.20;2.22;;;;;26.20;94650.00;;;;7392398;19;20133;-70
2022/07/19 06:26:42;;;;;;;8.02;2.15;;;;;26.30;94651.00;;;;7392153;19;20141;-70
2022/07/19 06:29:10;;;;;;;2.88;1.80;;;;;26.50;94644.00;;;;7393224;19;20152;-71
2022/07/19 06:31:38;;;;;;;6.80;2.50;;;;;26.60;94648.00;;;;7392233;19;20149;-71
2022/07/19 06:34:13;;;;;;;2.63;1.70;;;;;26.80;94650.00;;;;7392358;19;20140;-70
2022/07/19 06:36:41;;;;;;;4.20;2.10;;;;;26.70;94645.00;;;;7391451;19;20479;-72
2022/07/19 06:39:09;;;;;;;2.50;2.00;;;;;26.70;94646.00;;;;7391773;19;20757;-70
2022/07/19 06:41:46;;;;;;;3.03;2.05;;;;;26.90;94647.00;;;;7392299;19;20153;-69
2022/07/19 06:44:14;;;;;;;5.40;2.20;;;;;26.80;94654.00;;;;7394067;19;20138;-70
2022/07/19 06:46:42;;;;;;;4.90;2.00;;;;;26.70;94650.00;;;;7391124;19;20469;-70
2022/07/19 06:49:34;;;;;;;2.72;1.92;;;;;26.80;94649.00;;;;7392181;19;20634;-72
2022/07/19 06:52:09;;;;;;;3.53;2.10;;;;;26.70;94649.00;;;;7392872;19;20149;-71
2022/07/19 06:54:43;;;;;;;2.92;1.90;;;;;26.80;94647.00;;;;7390781;19;20151;-71
2022/07/19 06:57:12;;;;;;;2.40;1.90;;;;;26.80;94654.00;;;;7391536;19;20161;-70
2022/07/19 06:59:39;;;;;;;3.08;2.10;;;;;26.90;94636.00;;;;7391256;19;20502;-72
2022/07/19 07:02:14;;;;;;;3.85;1.70;;;;;26.90;94646.00;;;;7394170;19;20148;-70
2022/07/19 07:04:42;;;;;;;4.60;2.10;;;;;27.30;94644.00;;;;7392740;19;20165;-71
2022/07/19 07:07:13;;;;;;;4.95;2.00;;;;;27.20;94654.00;;;;7396221;19;20152;-71
2022/07/19 07:09:49;;;;;;;3.35;2.25;;;;;27.20;94645.00;;;;7390515;19;20136;-70
2022/07/19 07:12:17;;;;;;;6.47;2.20;;;;;27.40;94638.00;;;;7390033;19;20576;-71
2022/07/19 07:14:45;;;;;;;3.58;2.28;;;;;27.20;94648.00;;;;7392286;19;20145;-70
2022/07/19 07:17:19;;;;;;;7.53;2.08;;;;;27.00;94644.00;;;;7393137;19;20168;-72
2022/07/19 07:19:53;;;;;;;4.45;2.10;;;;;27.20;94647.00;;;;7391572;19;20141;-71
2022/07/19 07:22:28;;;;;;;2.58;1.73;;;;;27.20;94654.00;;;;7390263;19;20614;-73
2022/07/19 07:24:56;;;;;;;2.60;2.00;;;;;27.20;94647.00;;;;7392200;19;20129;-74
2022/07/19 07:27:25;;;;;;;6.63;2.30;;;;;27.30;94649.00;;;;7390573;19;20609;-72
2022/07/19 07:30:00;;;;;;;2.30;2.10;;;;;27.30;94649.00;;;;7391786;19;20161;-71
2022/07/19 07:32:29;;;;;;;5.40;2.13;;;;;27.50;94646.00;;;;7391558;19;20143;-71
2022/07/19 07:34:57;;;;;;;2.83;2.20;;;;;27.60;94651.00;;;;7390437;19;20233;-72
2022/07/19 07:37:32;;;;;;;6.82;2.28;;;;;27.60;94644.00;;;;7389481;19;20144;-71
2022/07/19 07:40:00;;;;;;;3.88;2.40;;;;;27.50;94648.00;;;;7390343;19;20172;-73
2022/07/19 07:42:30;;;;;;;6.60;2.20;;;;;27.60;94642.00;;;;7388160;19;20192;-71
2022/07/19 07:45:07;;;;;;;2.63;2.08;;;;;27.90;94641.00;;;;7387178;19;20149;-72
2022/07/19 07:47:35;;;;;;;3.60;1.80;;;;;27.80;94642.00;;;;7386687;19;20544;-71
2022/07/19 07:50:06;;;;;;;4.15;2.08;;;;;27.90;94640.00;;;;7386899;19;20532;-74
2022/07/19 07:52:40;;;;;;;4.63;2.30;;;;;27.90;94635.00;;;;7390604;19;20532;-72
2022/07/19 07:55:12;;;;;;;2.53;1.92;;;;;28.40;94645.00;;;;7395166;19;20581;-71
2022/07/19 07:57:58;;;;;;;4.90;2.10;;;;;28.90;94631.00;;;;7400641;19;20204;-73
2022/07/19 08:00:32;;;;;;;7.35;2.60;;;;;29.00;94633.00;;;;7399120;19;20689;-71
2022/07/19 08:03:01;;;;;;;6.72;2.63;;;;;29.10;94633.00;;;;7399456;19;20159;-72
2022/07/19 08:05:30;;;;;;;2.35;2.03;;;;;29.20;94631.00;;;;7397691;19;20173;-72
2022/07/19 08:08:05;;;;;;;4.32;2.13;;;;;29.10;94622.00;;;;7397642;19;20140;-73
2022/07/19 08:10:35;;;;;;;4.22;2.15;;;;;29.10;94628.00;;;;7394952;19;20145;-72
2022/07/19 08:13:03;;;;;;;3.33;2.33;;;;;29.50;94627.00;;;;7398015;19;20133;-72
2022/07/19 08:15:38;;;;;;;2.58;2.00;;;;;29.60;94631.00;;;;7395539;19;20143;-71
2022/07/19 08:18:06;;;;;;;4.78;2.10;;;;;29.80;94627.00;;;;7396471;19;20168;-73
2022/07/19 08:20:37;;;;;;;3.00;2.30;;;;;29.80;94632.00;;;;7396726;19;20543;-73
2022/07/19 08:23:11;;;;;;;9.02;2.33;;;;;29.80;94629.00;;;;7397054;19;20133;-72
2022/07/19 08:25:39;;;;;;;4.18;2.28;;;;;29.70;94634.00;;;;7395890;19;20154;-73
2022/07/19 08:28:07;;;;;;;2.35;2.08;;;;;29.60;94619.00;;;;7397869;19;20517;-73
2022/07/19 08:30:41;;;;;;;3.58;2.17;;;;;29.60;94625.00;;;;7397616;19;20144;-72
2022/07/19 08:33:32;;;;;;;5.03;2.20;;;;;29.80;94626.00;;;;7396703;19;20151;-73
2022/07/19 08:36:09;;;;;;;3.83;2.15;;;;;29.90;94612.00;;;;7396611;19;20148;-73
2022/07/19 08:38:41;;;;;;;4.05;2.67;;;;;29.80;94622.00;;;;7395063;19;20159;-73
2022/07/19 08:41:17;;;;;;;6.07;2.40;;;;;30.30;94612.00;;;;7387608;19;20156;-73
2022/07/19 08:43:45;;;;;;;7.70;2.83;;;;;30.50;94612.00;;;;7391351;19;20186;-72
2022/07/19 08:46:13;;;;;;;3.08;2.40;;;;;30.60;94617.00;;;;7394503;19;20144;-71
2022/07/19 08:48:48;;;;;;;5.28;2.40;;;;;30.80;94611.00;;;;7394020;19;20144;-72
2022/07/19 08:51:23;;;;;;;3.15;2.17;;;;;30.80;94608.00;;;;7393095;19;20176;-73
2022/07/19 08:53:59;;;;;;;3.70;2.60;;;;;30.90;94613.00;;;;7397462;19;20615;-70
2022/07/19 08:59:25;;;;;;;2.45;2.25;;;;;31.10;94633.00;;;;7396472;19;20149;-73
2022/07/19 09:01:53;;;;;;;3.45;2.40;;;;;31.10;94626.00;;;;7395980;19;20144;-70
2022/07/19 09:04:30;;;;;;;4.30;2.22;;;;;31.30;94626.00;;;;7394028;19;20156;-72
2022/07/19 09:07:02;;;;;;;5.32;2.30;;;;;31.50;94621.00;;;;7394185;19;20129;-71
2022/07/19 09:09:37;;;;;;;4.82;2.17;;;;;31.80;94618.00;;;;7394442;19;20159;-71
2022/07/19 09:12:07;;;;;;;3.22;2.35;;;;;31.80;94616.00;;;;7394182;19;20641;-72
2022/07/19 09:14:39;;;;;;;6.43;2.38;;;;;31.90;94616.00;;;;7395746;19;20158;-70
2022/07/19 09:17:16;;;;;;;3.92;2.63;;;;;32.30;94621.00;;;;7397938;19;20128;-71
2022/07/19 09:19:47;;;;;;;5.43;2.30;;;;;32.00;94622.00;;;;7394929;19;20140;-72
2022/07/19 09:22:22;;;;;;;5.07;1.95;;;;;31.90;94626.00;;;;7392348;19;20871;-71
2022/07/19 09:24:53;;;;;;;7.45;2.20;;;;;31.90;94621.00;;;;7396299;19;20132;-71
2022/07/19 09:27:25;;;;;;;4.60;2.22;;;;;31.90;94611.00;;;;7392847;19;20184;-72
2022/07/19 09:30:02;;;;;;;3.80;1.80;;;;;31.90;94628.00;;;;7394515;19;20160;-71
2022/07/19 09:32:31;;;;;;;4.05;2.10;;;;;32.00;94620.00;;;;7393956;19;20148;-70
2022/07/19 09:35:05;;;;;;;7.75;2.05;;;;;32.20;94614.00;;;;7396700;19;20332;-71
2022/07/19 09:37:41;;;;;;;2.83;2.20;;;;;32.30;94611.00;;;;7395410;19;20144;-73
2022/07/19 09:40:10;;;;;;;3.67;2.22;;;;;32.60;94619.00;;;;7394039;19;20495;-71
2022/07/19 09:42:43;;;;;;;2.67;2.08;;;;;32.30;94624.00;;;;7393150;19;20144;-72
2022/07/19 09:45:20;;;;;;;4.82;2.40;;;;;32.10;94629.00;;;;7395854;19;20129;-71
2022/07/19 09:47:50;;;;;;;5.53;2.38;;;;;32.40;94615.00;;;;7394901;19;20499;-72
2022/07/19 09:50:31;;;;;;;8.57;2.70;;;;;32.50;94621.00;;;;7391718;19;20542;-73
2022/07/19 09:53:06;;;;;;;4.15;2.60;;;;;32.70;94619.00;;;;7391449;19;20148;-73
2022/07/19 09:55:41;;;;;;;3.20;2.50;;;;;32.60;94615.00;;;;7393543;19;20618;-73
2022/07/19 09:58:09;;;;;;;2.80;2.10;;;;;32.50;94619.00;;;;7395427;19;20136;-72
2022/07/19 10:00:38;;;;;;;5.95;2.17;;;;;32.50;94631.00;;;;7392496;19;20145;-72
2022/07/19 10:03:15;;;;;;;5.30;2.15;;;;;32.50;94621.00;;;;7394867;19;20717;-73
2022/07/19 10:05:48;;;;;;;5.22;2.40;;;;;32.30;94623.00;;;;7392498;19;20142;-73
2022/07/19 10:08:23;;;;;;;3.30;1.98;;;;;32.70;94621.00;;;;7390915;19;20465;-72
2022/07/19 10:10:51;;;;;;;3.85;2.42;;;;;32.80;94617.00;;;;7391326;19;20630;-72
2022/07/19 10:13:20;;;;;;;3.63;2.55;;;;;32.50;94611.00;;;;7394939;19;20156;-73
2022/07/19 10:16:03;;;;;;;5.88;2.30;;;;;32.40;94611.00;;;;7393247;19;20195;-72
2022/07/19 10:18:46;;;;;;;4.68;2.47;;;;;32.60;94615.00;;;;7393179;19;20224;-71
2022/07/19 10:21:23;;;;;;;8.68;2.38;;;;;32.70;94616.00;;;;7394609;19;20148;-73
2022/07/19 10:23:56;;;;;;;5.47;2.45;;;;;32.80;94616.00;;;;7392509;19;20154;-72
2022/07/19 10:26:34;;;;;;;4.72;2.40;;;;;32.70;94602.00;;;;7390599;19;20232;-73
2022/07/19 10:29:11;;;;;;;6.75;2.38;;;;;32.80;94597.00;;;;7394933;19;20465;-72
2022/07/19 10:32:04;;;;;;;3.00;2.63;;;;;32.90;94596.00;;;;7393986;19;20140;-70
2022/07/19 10:34:32;;;;;;;5.30;2.53;;;;;33.70;94585.00;;;;7391834;19;20143;-70
2022/07/19 10:37:09;;;;;;;5.82;2.65;;;;;34.10;94595.00;;;;7391606;19;20649;-72
2022/07/19 10:39:39;;;;;;;4.47;2.33;;;;;34.00;94586.00;;;;7393221;19;20132;-72
2022/07/19 10:42:23;;;;;;;4.13;2.72;;;;;34.20;94594.00;;;;7391391;19;20140;-72
2022/07/19 10:44:59;;;;;;;5.18;2.63;;;;;33.60;94597.00;;;;7391651;19;20150;-73
2022/07/19 10:47:39;;;;;;;4.90;2.60;;;;;33.40;94597.00;;;;7390597;19;20140;-73
2022/07/19 10:50:21;;;;;;;4.55;2.50;;;;;33.60;94592.00;;;;7392099;19;20592;-73
2022/07/19 10:53:02;;;;;;;5.30;2.85;;;;;33.50;94579.00;;;;7391776;19;20141;-73
2022/07/19 10:55:31;;;;;;;8.32;3.72;;;;;33.40;94592.00;;;;7392556;19;20488;-73
2022/07/19 10:58:09;;;;;;;7.07;3.08;;;;;33.50;94584.00;;;;7392941;19;20135;-72
2022/07/19 11:00:47;;;;;;;6.22;2.45;;;;;33.70;94585.00;;;;7383959;19;20148;-73
2022/07/19 11:03:25;;;;;;;7.72;2.72;;;;;33.80;94577.00;;;;7386551;19;20164;-74
2022/07/19 11:06:01;;;;;;;5.95;2.85;;;;;34.00;94576.00;;;;7386101;19;20163;-73
2022/07/19 11:08:41;;;;;;;10.38;2.55;;;;;34.50;94576.00;;;;7385891;19;20641;-73
2022/07/19 11:11:18;;;;;;;9.15;2.90;;;;;34.20;94573.00;;;;7386102;19;20204;-74
2022/07/19 11:13:59;;;;;;;8.65;3.08;;;;;33.60;94575.00;;;;7385624;19;20138;-74
2022/07/19 11:16:29;;;;;;;6.25;2.58;;;;;33.70;94562.00;;;;7385725;19;20147;-73
2022/07/19 11:19:07;;;;;;;8.38;2.50;;;;;33.40;94564.00;;;;7386932;19;20151;-71
2022/07/19 11:21:37;;;;;;;5.35;2.58;;;;;33.80;94562.00;;;;7386062;19;20610;-73
2022/07/19 11:24:20;;;;;;;5.22;2.78;;;;;34.20;94557.00;;;;7387103;19;20158;-74
2022/07/19 11:26:48;;;;;;;6.07;2.60;;;;;34.20;94555.00;;;;7385332;19;20615;-73
2022/07/19 11:29:23;;;;;;;5.55;2.70;;;;;34.20;94556.00;;;;7393507;19;20155;-72
2022/07/19 11:31:51;;;;;;;3.95;2.55;;;;;34.30;94556.00;;;;7393073;19;20160;-72
2022/07/19 11:34:22;;;;;;;4.32;2.60;;;;;34.20;94549.00;;;;7394175;19;20140;-73
2022/07/19 11:36:58;;;;;;;6.50;3.00;;;;;34.20;94546.00;;;;7393581;19;20147;-73
2022/07/19 11:39:44;;;;;;;7.28;2.75;;;;;34.30;94535.00;;;;7394308;19;20223;-78
2022/07/19 11:42:42;;;;;;;7.65;2.83;;;;;34.70;94540.00;;;;7393851;19;20152;-75
2022/07/19 11:45:30;;;;;;;6.90;3.08;;;;;34.70;94538.00;;;;7393327;19;20200;-74
2022/07/19 11:48:05;;;;;;;5.45;2.83;;;;;35.20;94531.00;;;;7391356;19;20148;-73
2022/07/19 11:50:41;;;;;;;11.35;3.08;;;;;34.80;94526.00;;;;7391792;19;20193;-73
2022/07/19 11:53:26;;;;;;;6.72;3.20;;;;;34.80;94523.00;;;;7393637;19;20239;-73
2022/07/19 11:55:54;;;;;;;5.15;2.78;;;;;34.60;94531.00;;;;7397510;19;20152;-72
2022/07/19 11:58:28;;;;;;;6.05;2.92;;;;;34.40;94532.00;;;;7397805;19;20190;-75
2022/07/19 12:01:06;;;;;;;4.78;3.17;;;;;34.10;94523.00;;;;7397744;19;20200;-72
2022/07/19 12:03:52;;;;;;;4.57;3.08;;;;;34.20;94517.00;;;;7398575;19;20135;-72
2022/07/19 12:06:33;;;;;;;6.88;2.95;;;;;34.50;94519.00;;;;7396968;19;20132;-75
2022/07/19 12:09:15;;;;;;;5.93;3.17;;;;;34.50;94517.00;;;;7397768;19;20208;-73
2022/07/19 12:11:45;;;;;;;7.07;3.30;;;;;35.10;94509.00;;;;7395377;19;20172;-73
2022/07/19 12:14:27;;;;;;;6.10;3.42;;;;;35.50;94509.00;;;;7398801;19;20161;-72
2022/07/19 12:17:17;;;;;;;6.25;3.60;;;;;35.80;94503.00;;;;7398281;19;20148;-72
2022/07/19 12:20:08;;;;;;;4.13;3.08;;;;;35.70;94507.00;;;;7398935;19;20203;-72
2022/07/19 12:23:16;;;;;;;4.25;2.92;;;;;35.80;94508.00;;;;7395450;19;20502;-73
2022/07/19 12:25:51;;;;;;;4.82;3.25;;;;;35.70;94500.00;;;;7394398;19;20164;-72
2022/07/19 12:28:28;;;;;;;6.93;3.17;;;;;35.30;94505.00;;;;7393852;19;20607;-71
2022/07/19 12:31:06;;;;;;;5.35;2.95;;;;;35.00;94496.00;;;;7395842;19;20140;-73
2022/07/19 12:33:34;;;;;;;4.55;2.92;;;;;34.90;94497.00;;;;7391018;19;20148;-72
2022/07/19 12:36:04;;;;;;;4.88;3.22;;;;;35.00;94496.00;;;;7393442;19;20559;-73
2022/07/19 12:38:39;;;;;;;3.72;3.10;;;;;34.60;94497.00;;;;7391542;19;20143;-72
2022/07/19 12:41:08;;;;;;;7.55;3.28;;;;;34.40;94495.00;;;;7390392;19;20148;-74
2022/07/19 12:43:36;;;;;;;4.95;3.03;;;;;34.80;94498.00;;;;7388393;19;20215;-74
2022/07/19 12:46:11;;;;;;;5.65;3.35;;;;;34.70;94501.00;;;;7390971;19;20151;-75
2022/07/19 12:48:46;;;;;;;8.77;3.92;;;;;34.70;94498.00;;;;7390093;19;20631;-73